sensor_id;sensor_type;location;lat;lon;timestamp;P1;durP1;ratioP1;P2;durP2;ratioP2
3066;SDS011;1544;48.834;9.194;2023-07-09T00:01:27;5.30;;;4.80;;
3066;SDS011;1544;48.834;9.194;2023-07-09T00:04:03;6.00;;;5.50;;
3066;SDS011;1544;48.834;9.194;2023-07-09T00:06:39;5.17;;;4.77;;
3066;SDS011;1544;48.834;9.194;2023-07-09T00:09:20;7.30;;;6.63;;
3066;SDS011;1544;48.834;9.194;2023-07-09T00:11:57;6.70;;;6.00;;
3066;SDS011;1544;48.834;9.194;2023-07-09T00:14:33;8.37;;;7.67;;
3066;SDS011;1544;48.834;9.194;2023-07-09T00:17:16;6.20;;;5.70;;
3066;SDS011;1544;48.834;9.194;2023-07-09T00:19:56;6.30;;;5.67;;
3066;SDS011;1544;48.834;9.194;2023-07-09T00:22:32;5.20;;;4.70;;
3066;SDS011;1544;48.834;9.194;2023-07-09T00:25:10;4.43;;;4.13;;
3066;SDS011;1544;48.834;9.194;2023-07-09T00:27:51;5.13;;;4.63;;
3066;SDS011;1544;48.834;9.194;2023-07-09T00:30:27;6.03;;;5.37;;
3066;SDS011;1544;48.834;9.194;2023-07-09T00:33:03;4.80;;;4.40;;
3066;SDS011;1544;48.834;9.194;2023-07-09T00:35:41;4.70;;;4.13;;
3066;SDS011;1544;48.834;9.194;2023-07-09T00:38:22;5.23;;;4.43;;
3066;SDS011;1544;48.834;9.194;2023-07-09T00:43:35;3.93;;;3.53;;
3066;SDS011;1544;48.834;9.194;2023-07-09T00:48:59;4.93;;;4.53;;
3066;SDS011;1544;48.834;9.194;2023-07-09T00:51:41;5.50;;;5.00;;
3066;SDS011;1544;48.834;9.194;2023-07-09T00:54:22;7.50;;;4.37;;
3066;SDS011;1544;48.834;9.194;2023-07-09T00:57:08;5.07;;;4.47;;
3066;SDS011;1544;48.834;9.194;2023-07-09T00:59:54;5.00;;;4.50;;
3066;SDS011;1544;48.834;9.194;2023-07-09T01:02:36;5.20;;;4.70;;
3066;SDS011;1544;48.834;9.194;2023-07-09T01:05:33;5.37;;;4.60;;
3066;SDS011;1544;48.834;9.194;2023-07-09T01:08:09;4.60;;;4.20;;
3066;SDS011;1544;48.834;9.194;2023-07-09T01:10:47;5.33;;;4.93;;
3066;SDS011;1544;48.834;9.194;2023-07-09T01:13:23;6.37;;;5.87;;
3066;SDS011;1544;48.834;9.194;2023-07-09T01:16:02;5.20;;;4.70;;
3066;SDS011;1544;48.834;9.194;2023-07-09T01:18:39;5.53;;;5.03;;
3066;SDS011;1544;48.834;9.194;2023-07-09T01:21:15;6.70;;;5.93;;
3066;SDS011;1544;48.834;9.194;2023-07-09T01:23:53;6.03;;;5.53;;
3066;SDS011;1544;48.834;9.194;2023-07-09T01:26:30;5.30;;;4.90;;
3066;SDS011;1544;48.834;9.194;2023-07-09T01:29:06;5.17;;;4.80;;
3066;SDS011;1544;48.834;9.194;2023-07-09T01:31:42;6.00;;;5.40;;
3066;SDS011;1544;48.834;9.194;2023-07-09T01:34:18;5.50;;;5.10;;
3066;SDS011;1544;48.834;9.194;2023-07-09T01:36:55;5.30;;;4.90;;
3066;SDS011;1544;48.834;9.194;2023-07-09T01:39:31;6.27;;;5.77;;
3066;SDS011;1544;48.834;9.194;2023-07-09T01:42:07;4.70;;;4.40;;
3066;SDS011;1544;48.834;9.194;2023-07-09T01:44:44;5.43;;;5.00;;
3066;SDS011;1544;48.834;9.194;2023-07-09T01:47:21;5.00;;;4.53;;
3066;SDS011;1544;48.834;9.194;2023-07-09T01:49:59;4.60;;;4.20;;
3066;SDS011;1544;48.834;9.194;2023-07-09T01:52:36;4.10;;;3.90;;
3066;SDS011;1544;48.834;9.194;2023-07-09T01:55:17;4.43;;;4.03;;
3066;SDS011;1544;48.834;9.194;2023-07-09T01:57:53;6.70;;;4.63;;
3066;SDS011;1544;48.834;9.194;2023-07-09T02:00:30;5.00;;;4.60;;
3066;SDS011;1544;48.834;9.194;2023-07-09T02:03:06;4.70;;;4.10;;
3066;SDS011;1544;48.834;9.194;2023-07-09T02:05:44;3.90;;;3.60;;
3066;SDS011;1544;48.834;9.194;2023-07-09T02:08:22;4.10;;;3.80;;
3066;SDS011;1544;48.834;9.194;2023-07-09T02:10:58;5.43;;;3.50;;
3066;SDS011;1544;48.834;9.194;2023-07-09T02:13:34;4.03;;;3.60;;
3066;SDS011;1544;48.834;9.194;2023-07-09T02:16:10;3.47;;;3.17;;
3066;SDS011;1544;48.834;9.194;2023-07-09T02:18:46;3.70;;;3.37;;
3066;SDS011;1544;48.834;9.194;2023-07-09T02:21:22;4.17;;;3.87;;
3066;SDS011;1544;48.834;9.194;2023-07-09T02:23:58;3.50;;;3.30;;
3066;SDS011;1544;48.834;9.194;2023-07-09T02:26:34;3.20;;;3.00;;
3066;SDS011;1544;48.834;9.194;2023-07-09T02:29:10;3.70;;;3.40;;
3066;SDS011;1544;48.834;9.194;2023-07-09T02:31:47;4.00;;;3.70;;
3066;SDS011;1544;48.834;9.194;2023-07-09T02:34:25;3.60;;;3.40;;
3066;SDS011;1544;48.834;9.194;2023-07-09T02:37:02;4.93;;;4.53;;
3066;SDS011;1544;48.834;9.194;2023-07-09T02:39:38;3.80;;;3.50;;
3066;SDS011;1544;48.834;9.194;2023-07-09T02:42:15;4.50;;;4.10;;
3066;SDS011;1544;48.834;9.194;2023-07-09T02:44:53;3.37;;;3.17;;
3066;SDS011;1544;48.834;9.194;2023-07-09T02:47:32;3.57;;;3.27;;
3066;SDS011;1544;48.834;9.194;2023-07-09T02:50:09;3.77;;;3.57;;
3066;SDS011;1544;48.834;9.194;2023-07-09T02:52:45;4.53;;;4.23;;
3066;SDS011;1544;48.834;9.194;2023-07-09T02:55:21;4.70;;;4.30;;
3066;SDS011;1544;48.834;9.194;2023-07-09T02:57:57;6.23;;;5.63;;
3066;SDS011;1544;48.834;9.194;2023-07-09T03:00:33;5.30;;;4.90;;
3066;SDS011;1544;48.834;9.194;2023-07-09T03:03:09;4.90;;;4.53;;
3066;SDS011;1544;48.834;9.194;2023-07-09T03:05:45;4.63;;;4.20;;
3066;SDS011;1544;48.834;9.194;2023-07-09T03:08:22;4.80;;;4.03;;
3066;SDS011;1544;48.834;9.194;2023-07-09T03:10:58;3.13;;;2.93;;
3066;SDS011;1544;48.834;9.194;2023-07-09T03:13:35;4.03;;;3.60;;
3066;SDS011;1544;48.834;9.194;2023-07-09T03:16:11;3.70;;;3.40;;
3066;SDS011;1544;48.834;9.194;2023-07-09T03:18:47;3.20;;;3.00;;
3066;SDS011;1544;48.834;9.194;2023-07-09T03:21:24;3.67;;;3.37;;
3066;SDS011;1544;48.834;9.194;2023-07-09T03:24:01;4.70;;;4.30;;
3066;SDS011;1544;48.834;9.194;2023-07-09T03:26:38;4.43;;;3.33;;
3066;SDS011;1544;48.834;9.194;2023-07-09T03:29:14;4.23;;;3.40;;
3066;SDS011;1544;48.834;9.194;2023-07-09T03:31:50;3.70;;;3.33;;
3066;SDS011;1544;48.834;9.194;2023-07-09T03:34:26;4.17;;;3.43;;
3066;SDS011;1544;48.834;9.194;2023-07-09T03:37:02;3.40;;;3.20;;
3066;SDS011;1544;48.834;9.194;2023-07-09T03:39:38;3.73;;;3.43;;
3066;SDS011;1544;48.834;9.194;2023-07-09T03:42:15;3.63;;;3.33;;
3066;SDS011;1544;48.834;9.194;2023-07-09T03:44:51;4.33;;;3.40;;
3066;SDS011;1544;48.834;9.194;2023-07-09T03:47:27;4.23;;;3.37;;
3066;SDS011;1544;48.834;9.194;2023-07-09T03:50:06;3.17;;;2.97;;
3066;SDS011;1544;48.834;9.194;2023-07-09T03:52:44;3.17;;;2.97;;
3066;SDS011;1544;48.834;9.194;2023-07-09T03:55:20;4.57;;;4.27;;
3066;SDS011;1544;48.834;9.194;2023-07-09T03:57:56;3.73;;;3.37;;
3066;SDS011;1544;48.834;9.194;2023-07-09T04:00:32;7.30;;;4.07;;
3066;SDS011;1544;48.834;9.194;2023-07-09T04:03:09;3.60;;;3.30;;
3066;SDS011;1544;48.834;9.194;2023-07-09T04:05:45;3.70;;;3.40;;
3066;SDS011;1544;48.834;9.194;2023-07-09T04:08:22;3.13;;;2.93;;
3066;SDS011;1544;48.834;9.194;2023-07-09T04:10:59;3.40;;;3.10;;
3066;SDS011;1544;48.834;9.194;2023-07-09T04:13:37;3.70;;;3.50;;
3066;SDS011;1544;48.834;9.194;2023-07-09T04:16:14;3.07;;;2.87;;
3066;SDS011;1544;48.834;9.194;2023-07-09T04:18:50;3.60;;;3.23;;
3066;SDS011;1544;48.834;9.194;2023-07-09T04:21:25;4.20;;;3.10;;
3066;SDS011;1544;48.834;9.194;2023-07-09T04:24:01;3.63;;;3.40;;
3066;SDS011;1544;48.834;9.194;2023-07-09T04:26:38;3.93;;;3.60;;
3066;SDS011;1544;48.834;9.194;2023-07-09T04:29:14;3.47;;;3.17;;
3066;SDS011;1544;48.834;9.194;2023-07-09T04:31:50;3.97;;;3.40;;
3066;SDS011;1544;48.834;9.194;2023-07-09T04:34:26;4.80;;;3.80;;
3066;SDS011;1544;48.834;9.194;2023-07-09T04:37:02;5.67;;;3.70;;
3066;SDS011;1544;48.834;9.194;2023-07-09T04:39:38;3.80;;;3.00;;
3066;SDS011;1544;48.834;9.194;2023-07-09T04:42:16;3.80;;;3.50;;
3066;SDS011;1544;48.834;9.194;2023-07-09T04:44:52;3.80;;;3.20;;
3066;SDS011;1544;48.834;9.194;2023-07-09T04:47:28;4.67;;;3.30;;
3066;SDS011;1544;48.834;9.194;2023-07-09T04:50:05;3.47;;;3.27;;
3066;SDS011;1544;48.834;9.194;2023-07-09T04:52:43;4.23;;;3.20;;
3066;SDS011;1544;48.834;9.194;2023-07-09T04:55:19;4.00;;;3.70;;
3066;SDS011;1544;48.834;9.194;2023-07-09T04:57:55;4.10;;;3.80;;
3066;SDS011;1544;48.834;9.194;2023-07-09T05:00:31;5.10;;;4.20;;
3066;SDS011;1544;48.834;9.194;2023-07-09T05:03:07;3.40;;;3.20;;
3066;SDS011;1544;48.834;9.194;2023-07-09T05:05:44;3.40;;;3.10;;
3066;SDS011;1544;48.834;9.194;2023-07-09T05:08:21;3.60;;;3.37;;
3066;SDS011;1544;48.834;9.194;2023-07-09T05:10:58;3.47;;;3.27;;
3066;SDS011;1544;48.834;9.194;2023-07-09T05:13:34;3.80;;;3.50;;
3066;SDS011;1544;48.834;9.194;2023-07-09T05:16:10;3.37;;;3.07;;
3066;SDS011;1544;48.834;9.194;2023-07-09T05:18:46;3.80;;;3.40;;
3066;SDS011;1544;48.834;9.194;2023-07-09T05:21:22;3.37;;;3.07;;
3066;SDS011;1544;48.834;9.194;2023-07-09T05:23:58;4.37;;;3.97;;
3066;SDS011;1544;48.834;9.194;2023-07-09T05:26:34;4.40;;;4.00;;
3066;SDS011;1544;48.834;9.194;2023-07-09T05:29:10;4.37;;;4.07;;
3066;SDS011;1544;48.834;9.194;2023-07-09T05:31:46;3.70;;;3.40;;
3066;SDS011;1544;48.834;9.194;2023-07-09T05:34:22;4.60;;;4.10;;
3066;SDS011;1544;48.834;9.194;2023-07-09T05:36:58;3.83;;;3.53;;
3066;SDS011;1544;48.834;9.194;2023-07-09T05:39:35;4.13;;;3.83;;
3066;SDS011;1544;48.834;9.194;2023-07-09T05:42:12;3.70;;;3.40;;
3066;SDS011;1544;48.834;9.194;2023-07-09T05:44:48;3.20;;;3.00;;
3066;SDS011;1544;48.834;9.194;2023-07-09T05:47:24;3.67;;;3.33;;
3066;SDS011;1544;48.834;9.194;2023-07-09T05:50:01;3.73;;;3.50;;
3066;SDS011;1544;48.834;9.194;2023-07-09T05:52:38;3.63;;;3.33;;
3066;SDS011;1544;48.834;9.194;2023-07-09T05:55:14;4.07;;;3.63;;
3066;SDS011;1544;48.834;9.194;2023-07-09T05:57:51;3.50;;;3.30;;
3066;SDS011;1544;48.834;9.194;2023-07-09T06:00:28;3.53;;;2.90;;
3066;SDS011;1544;48.834;9.194;2023-07-09T06:03:04;3.17;;;2.90;;
3066;SDS011;1544;48.834;9.194;2023-07-09T06:05:43;3.47;;;3.17;;
3066;SDS011;1544;48.834;9.194;2023-07-09T06:08:19;3.67;;;3.37;;
3066;SDS011;1544;48.834;9.194;2023-07-09T06:10:57;3.77;;;3.50;;
3066;SDS011;1544;48.834;9.194;2023-07-09T06:13:37;3.20;;;3.00;;
3066;SDS011;1544;48.834;9.194;2023-07-09T06:16:13;4.17;;;3.77;;
3066;SDS011;1544;48.834;9.194;2023-07-09T06:18:50;4.20;;;3.90;;
3066;SDS011;1544;48.834;9.194;2023-07-09T06:21:26;4.00;;;3.70;;
3066;SDS011;1544;48.834;9.194;2023-07-09T06:24:02;4.00;;;3.70;;
3066;SDS011;1544;48.834;9.194;2023-07-09T06:26:42;4.07;;;3.77;;
3066;SDS011;1544;48.834;9.194;2023-07-09T06:29:22;3.70;;;3.50;;
3066;SDS011;1544;48.834;9.194;2023-07-09T06:32:00;4.10;;;3.70;;
3066;SDS011;1544;48.834;9.194;2023-07-09T06:34:36;3.70;;;3.50;;
3066;SDS011;1544;48.834;9.194;2023-07-09T06:37:12;4.00;;;3.70;;
3066;SDS011;1544;48.834;9.194;2023-07-09T06:39:49;3.67;;;3.27;;
3066;SDS011;1544;48.834;9.194;2023-07-09T06:42:27;3.50;;;3.30;;
3066;SDS011;1544;48.834;9.194;2023-07-09T06:45:19;3.83;;;3.50;;
3066;SDS011;1544;48.834;9.194;2023-07-09T06:47:56;3.83;;;3.63;;
3066;SDS011;1544;48.834;9.194;2023-07-09T06:50:33;4.00;;;3.60;;
3066;SDS011;1544;48.834;9.194;2023-07-09T06:53:10;3.90;;;3.60;;
3066;SDS011;1544;48.834;9.194;2023-07-09T06:55:46;3.70;;;3.40;;
3066;SDS011;1544;48.834;9.194;2023-07-09T06:58:24;3.97;;;3.67;;
3066;SDS011;1544;48.834;9.194;2023-07-09T07:01:06;4.13;;;3.83;;
3066;SDS011;1544;48.834;9.194;2023-07-09T07:03:45;3.87;;;3.57;;
3066;SDS011;1544;48.834;9.194;2023-07-09T07:06:21;4.10;;;3.60;;
3066;SDS011;1544;48.834;9.194;2023-07-09T07:08:57;3.60;;;3.40;;
3066;SDS011;1544;48.834;9.194;2023-07-09T07:11:33;4.30;;;4.00;;
3066;SDS011;1544;48.834;9.194;2023-07-09T07:14:09;3.90;;;3.60;;
3066;SDS011;1544;48.834;9.194;2023-07-09T07:16:45;3.70;;;3.50;;
3066;SDS011;1544;48.834;9.194;2023-07-09T07:19:22;3.70;;;3.40;;
3066;SDS011;1544;48.834;9.194;2023-07-09T07:21:58;3.97;;;3.63;;
3066;SDS011;1544;48.834;9.194;2023-07-09T07:24:34;3.57;;;3.37;;
3066;SDS011;1544;48.834;9.194;2023-07-09T07:27:10;4.33;;;4.00;;
3066;SDS011;1544;48.834;9.194;2023-07-09T07:29:46;5.57;;;3.70;;
3066;SDS011;1544;48.834;9.194;2023-07-09T07:32:22;3.80;;;3.60;;
3066;SDS011;1544;48.834;9.194;2023-07-09T07:34:58;4.23;;;4.03;;
3066;SDS011;1544;48.834;9.194;2023-07-09T07:37:34;4.80;;;4.40;;
3066;SDS011;1544;48.834;9.194;2023-07-09T07:40:11;4.60;;;4.17;;
3066;SDS011;1544;48.834;9.194;2023-07-09T07:42:47;4.30;;;3.80;;
3066;SDS011;1544;48.834;9.194;2023-07-09T07:45:24;4.07;;;3.77;;
3066;SDS011;1544;48.834;9.194;2023-07-09T07:48:01;3.93;;;3.70;;
3066;SDS011;1544;48.834;9.194;2023-07-09T07:50:37;5.00;;;4.37;;
3066;SDS011;1544;48.834;9.194;2023-07-09T07:53:14;4.60;;;4.30;;
3066;SDS011;1544;48.834;9.194;2023-07-09T07:55:51;4.33;;;3.97;;
3066;SDS011;1544;48.834;9.194;2023-07-09T07:58:27;5.07;;;4.70;;
3066;SDS011;1544;48.834;9.194;2023-07-09T08:01:03;4.73;;;4.33;;
3066;SDS011;1544;48.834;9.194;2023-07-09T08:03:39;5.20;;;3.67;;
3066;SDS011;1544;48.834;9.194;2023-07-09T08:06:15;4.43;;;3.90;;
3066;SDS011;1544;48.834;9.194;2023-07-09T08:08:51;4.13;;;3.73;;
3066;SDS011;1544;48.834;9.194;2023-07-09T08:11:27;4.40;;;4.10;;
3066;SDS011;1544;48.834;9.194;2023-07-09T08:14:05;4.07;;;3.70;;
3066;SDS011;1544;48.834;9.194;2023-07-09T08:16:41;4.00;;;3.80;;
3066;SDS011;1544;48.834;9.194;2023-07-09T08:19:18;3.77;;;3.47;;
3066;SDS011;1544;48.834;9.194;2023-07-09T08:21:55;3.50;;;3.30;;
3066;SDS011;1544;48.834;9.194;2023-07-09T08:24:31;5.20;;;3.97;;
3066;SDS011;1544;48.834;9.194;2023-07-09T08:27:07;4.10;;;3.80;;
3066;SDS011;1544;48.834;9.194;2023-07-09T08:29:44;4.00;;;3.70;;
3066;SDS011;1544;48.834;9.194;2023-07-09T08:32:21;3.30;;;3.10;;
3066;SDS011;1544;48.834;9.194;2023-07-09T08:34:57;4.43;;;4.13;;
3066;SDS011;1544;48.834;9.194;2023-07-09T08:37:36;3.63;;;3.43;;
3066;SDS011;1544;48.834;9.194;2023-07-09T08:40:13;4.83;;;3.70;;
3066;SDS011;1544;48.834;9.194;2023-07-09T08:42:53;3.73;;;3.53;;
3066;SDS011;1544;48.834;9.194;2023-07-09T08:45:53;3.30;;;3.10;;
3066;SDS011;1544;48.834;9.194;2023-07-09T08:48:45;5.80;;;4.10;;
3066;SDS011;1544;48.834;9.194;2023-07-09T08:51:36;4.27;;;3.97;;
3066;SDS011;1544;48.834;9.194;2023-07-09T08:54:16;4.03;;;2.90;;
3066;SDS011;1544;48.834;9.194;2023-07-09T08:57:41;3.30;;;3.00;;
3066;SDS011;1544;48.834;9.194;2023-07-09T09:02:58;3.67;;;3.37;;
3066;SDS011;1544;48.834;9.194;2023-07-09T09:06:11;3.23;;;2.93;;
3066;SDS011;1544;48.834;9.194;2023-07-09T09:09:04;3.67;;;2.97;;
3066;SDS011;1544;48.834;9.194;2023-07-09T09:12:09;3.70;;;3.40;;
3066;SDS011;1544;48.834;9.194;2023-07-09T09:14:56;3.50;;;3.20;;
3066;SDS011;1544;48.834;9.194;2023-07-09T09:17:37;3.30;;;3.10;;
3066;SDS011;1544;48.834;9.194;2023-07-09T09:20:19;3.20;;;2.90;;
3066;SDS011;1544;48.834;9.194;2023-07-09T09:23:14;2.97;;;2.80;;
3066;SDS011;1544;48.834;9.194;2023-07-09T09:25:55;3.00;;;2.80;;
3066;SDS011;1544;48.834;9.194;2023-07-09T09:28:47;5.30;;;3.37;;
3066;SDS011;1544;48.834;9.194;2023-07-09T09:31:24;3.40;;;3.20;;
3066;SDS011;1544;48.834;9.194;2023-07-09T09:34:04;3.47;;;3.17;;
3066;SDS011;1544;48.834;9.194;2023-07-09T09:36:40;4.33;;;3.30;;
3066;SDS011;1544;48.834;9.194;2023-07-09T09:39:17;6.73;;;4.20;;
3066;SDS011;1544;48.834;9.194;2023-07-09T09:41:54;3.30;;;3.10;;
3066;SDS011;1544;48.834;9.194;2023-07-09T09:44:32;4.50;;;3.83;;
3066;SDS011;1544;48.834;9.194;2023-07-09T09:47:09;3.83;;;3.63;;
3066;SDS011;1544;48.834;9.194;2023-07-09T09:49:47;3.00;;;2.80;;
3066;SDS011;1544;48.834;9.194;2023-07-09T09:52:29;4.10;;;3.73;;
3066;SDS011;1544;48.834;9.194;2023-07-09T09:55:16;3.37;;;3.17;;
3066;SDS011;1544;48.834;9.194;2023-07-09T09:58:11;4.00;;;3.70;;
3066;SDS011;1544;48.834;9.194;2023-07-09T10:00:51;3.07;;;2.57;;
3066;SDS011;1544;48.834;9.194;2023-07-09T10:03:34;3.50;;;3.20;;
3066;SDS011;1544;48.834;9.194;2023-07-09T10:09:21;3.30;;;3.10;;
3066;SDS011;1544;48.834;9.194;2023-07-09T10:15:48;2.97;;;2.77;;
3066;SDS011;1544;48.834;9.194;2023-07-09T10:18:43;3.00;;;2.80;;
3066;SDS011;1544;48.834;9.194;2023-07-09T10:21:37;2.63;;;2.50;;
3066;SDS011;1544;48.834;9.194;2023-07-09T10:27:35;4.80;;;3.63;;
3066;SDS011;1544;48.834;9.194;2023-07-09T10:30:25;3.40;;;3.10;;
3066;SDS011;1544;48.834;9.194;2023-07-09T10:33:35;2.60;;;2.10;;
3066;SDS011;1544;48.834;9.194;2023-07-09T10:36:48;4.03;;;2.60;;
3066;SDS011;1544;48.834;9.194;2023-07-09T10:39:55;3.50;;;2.73;;
3066;SDS011;1544;48.834;9.194;2023-07-09T10:42:40;2.90;;;2.70;;
3066;SDS011;1544;48.834;9.194;2023-07-09T10:45:46;2.30;;;2.20;;
3066;SDS011;1544;48.834;9.194;2023-07-09T10:48:31;4.07;;;2.83;;
3066;SDS011;1544;48.834;9.194;2023-07-09T10:54:21;4.00;;;2.83;;
3066;SDS011;1544;48.834;9.194;2023-07-09T10:57:41;4.57;;;2.40;;
3066;SDS011;1544;48.834;9.194;2023-07-09T11:00:32;3.23;;;2.93;;
3066;SDS011;1544;48.834;9.194;2023-07-09T11:03:24;5.03;;;3.40;;
3066;SDS011;1544;48.834;9.194;2023-07-09T11:09:32;2.70;;;2.00;;
3066;SDS011;1544;48.834;9.194;2023-07-09T11:12:14;2.60;;;2.40;;
3066;SDS011;1544;48.834;9.194;2023-07-09T11:15:27;3.97;;;2.40;;
3066;SDS011;1544;48.834;9.194;2023-07-09T11:18:13;2.67;;;2.43;;
3066;SDS011;1544;48.834;9.194;2023-07-09T11:21:15;3.37;;;2.70;;
3066;SDS011;1544;48.834;9.194;2023-07-09T11:23:53;3.13;;;2.57;;
3066;SDS011;1544;48.834;9.194;2023-07-09T11:26:38;3.13;;;2.63;;
3066;SDS011;1544;48.834;9.194;2023-07-09T11:29:24;3.37;;;3.07;;
3066;SDS011;1544;48.834;9.194;2023-07-09T11:32:07;2.50;;;2.30;;
3066;SDS011;1544;48.834;9.194;2023-07-09T11:34:45;2.50;;;2.30;;
3066;SDS011;1544;48.834;9.194;2023-07-09T11:37:25;5.23;;;3.27;;
3066;SDS011;1544;48.834;9.194;2023-07-09T11:40:08;3.00;;;2.80;;
3066;SDS011;1544;48.834;9.194;2023-07-09T11:42:50;3.10;;;2.73;;
3066;SDS011;1544;48.834;9.194;2023-07-09T11:45:28;6.50;;;3.30;;
3066;SDS011;1544;48.834;9.194;2023-07-09T11:48:18;3.17;;;2.97;;
3066;SDS011;1544;48.834;9.194;2023-07-09T11:51:05;2.87;;;2.60;;
3066;SDS011;1544;48.834;9.194;2023-07-09T11:53:52;2.87;;;2.67;;
3066;SDS011;1544;48.834;9.194;2023-07-09T11:56:29;3.20;;;2.97;;
3066;SDS011;1544;48.834;9.194;2023-07-09T11:59:13;3.57;;;2.50;;
3066;SDS011;1544;48.834;9.194;2023-07-09T12:01:49;4.67;;;2.60;;
3066;SDS011;1544;48.834;9.194;2023-07-09T12:04:33;2.97;;;2.77;;
3066;SDS011;1544;48.834;9.194;2023-07-09T12:07:12;2.73;;;2.53;;
3066;SDS011;1544;48.834;9.194;2023-07-09T12:09:50;3.17;;;2.87;;
3066;SDS011;1544;48.834;9.194;2023-07-09T12:12:26;3.10;;;2.80;;
3066;SDS011;1544;48.834;9.194;2023-07-09T12:15:12;3.43;;;3.00;;
3066;SDS011;1544;48.834;9.194;2023-07-09T12:17:59;3.97;;;2.73;;
3066;SDS011;1544;48.834;9.194;2023-07-09T12:20:38;5.03;;;3.20;;
3066;SDS011;1544;48.834;9.194;2023-07-09T12:26:02;4.30;;;2.77;;
3066;SDS011;1544;48.834;9.194;2023-07-09T12:28:39;3.47;;;3.17;;
3066;SDS011;1544;48.834;9.194;2023-07-09T12:31:16;3.33;;;3.13;;
3066;SDS011;1544;48.834;9.194;2023-07-09T12:33:53;3.00;;;2.80;;
3066;SDS011;1544;48.834;9.194;2023-07-09T12:36:31;3.57;;;3.27;;
3066;SDS011;1544;48.834;9.194;2023-07-09T12:39:11;2.80;;;2.60;;
3066;SDS011;1544;48.834;9.194;2023-07-09T12:41:50;3.17;;;2.87;;
3066;SDS011;1544;48.834;9.194;2023-07-09T12:44:35;4.27;;;3.00;;
3066;SDS011;1544;48.834;9.194;2023-07-09T12:47:15;3.60;;;3.23;;
3066;SDS011;1544;48.834;9.194;2023-07-09T12:49:59;2.50;;;2.20;;
3066;SDS011;1544;48.834;9.194;2023-07-09T12:52:47;3.07;;;2.77;;
3066;SDS011;1544;48.834;9.194;2023-07-09T12:55:25;4.27;;;2.77;;
3066;SDS011;1544;48.834;9.194;2023-07-09T12:58:02;5.87;;;3.20;;
3066;SDS011;1544;48.834;9.194;2023-07-09T13:00:38;2.70;;;2.50;;
3066;SDS011;1544;48.834;9.194;2023-07-09T13:03:14;3.90;;;2.70;;
3066;SDS011;1544;48.834;9.194;2023-07-09T13:05:51;3.50;;;3.07;;
3066;SDS011;1544;48.834;9.194;2023-07-09T13:08:29;3.33;;;3.03;;
3066;SDS011;1544;48.834;9.194;2023-07-09T13:11:15;3.47;;;3.17;;
3066;SDS011;1544;48.834;9.194;2023-07-09T13:13:55;3.80;;;3.40;;
3066;SDS011;1544;48.834;9.194;2023-07-09T13:16:38;3.90;;;3.50;;
3066;SDS011;1544;48.834;9.194;2023-07-09T13:19:19;4.50;;;3.57;;
3066;SDS011;1544;48.834;9.194;2023-07-09T13:21:55;5.13;;;3.53;;
3066;SDS011;1544;48.834;9.194;2023-07-09T13:24:32;2.83;;;2.60;;
3066;SDS011;1544;48.834;9.194;2023-07-09T13:27:12;2.87;;;2.63;;
3066;SDS011;1544;48.834;9.194;2023-07-09T13:29:49;4.70;;;2.60;;
3066;SDS011;1544;48.834;9.194;2023-07-09T13:32:25;3.27;;;2.80;;
3066;SDS011;1544;48.834;9.194;2023-07-09T13:35:01;2.97;;;2.77;;
3066;SDS011;1544;48.834;9.194;2023-07-09T13:37:39;4.10;;;3.67;;
3066;SDS011;1544;48.834;9.194;2023-07-09T13:40:15;3.67;;;3.38;;
3066;SDS011;1544;48.834;9.194;2023-07-09T13:42:51;6.10;;;3.33;;
3066;SDS011;1544;48.834;9.194;2023-07-09T13:45:30;3.90;;;3.60;;
3066;SDS011;1544;48.834;9.194;2023-07-09T13:48:13;3.25;;;3.05;;
3066;SDS011;1544;48.834;9.194;2023-07-09T13:50:52;5.10;;;3.13;;
3066;SDS011;1544;48.834;9.194;2023-07-09T13:53:30;3.28;;;2.92;;
3066;SDS011;1544;48.834;9.194;2023-07-09T13:56:07;3.00;;;2.80;;
3066;SDS011;1544;48.834;9.194;2023-07-09T13:58:43;4.65;;;3.28;;
3066;SDS011;1544;48.834;9.194;2023-07-09T14:01:23;3.20;;;3.00;;
3066;SDS011;1544;48.834;9.194;2023-07-09T14:03:59;3.28;;;2.90;;
3066;SDS011;1544;48.834;9.194;2023-07-09T14:06:35;3.03;;;2.70;;
3066;SDS011;1544;48.834;9.194;2023-07-09T14:09:12;3.90;;;3.60;;
3066;SDS011;1544;48.834;9.194;2023-07-09T14:11:50;2.95;;;2.63;;
3066;SDS011;1544;48.834;9.194;2023-07-09T14:14:30;2.97;;;2.78;;
3066;SDS011;1544;48.834;9.194;2023-07-09T14:17:08;2.75;;;2.55;;
3066;SDS011;1544;48.834;9.194;2023-07-09T14:19:49;2.58;;;2.47;;
3066;SDS011;1544;48.834;9.194;2023-07-09T14:22:33;2.72;;;2.55;;
3066;SDS011;1544;48.834;9.194;2023-07-09T14:25:19;2.22;;;2.13;;
3066;SDS011;1544;48.834;9.194;2023-07-09T14:28:00;2.65;;;2.42;;
3066;SDS011;1544;48.834;9.194;2023-07-09T14:30:36;2.58;;;2.47;;
3066;SDS011;1544;48.834;9.194;2023-07-09T14:33:14;3.83;;;2.80;;
3066;SDS011;1544;48.834;9.194;2023-07-09T14:35:56;4.35;;;2.22;;
3066;SDS011;1544;48.834;9.194;2023-07-09T14:38:32;2.85;;;2.65;;
3066;SDS011;1544;48.834;9.194;2023-07-09T14:41:24;2.80;;;2.60;;
3066;SDS011;1544;48.834;9.194;2023-07-09T14:44:02;3.40;;;2.85;;
3066;SDS011;1544;48.834;9.194;2023-07-09T14:46:38;3.85;;;2.35;;
3066;SDS011;1544;48.834;9.194;2023-07-09T14:49:15;3.25;;;2.88;;
3066;SDS011;1544;48.834;9.194;2023-07-09T14:51:55;2.22;;;2.00;;
3066;SDS011;1544;48.834;9.194;2023-07-09T14:54:31;2.70;;;2.50;;
3066;SDS011;1544;48.834;9.194;2023-07-09T14:57:20;3.40;;;3.08;;
3066;SDS011;1544;48.834;9.194;2023-07-09T14:59:59;4.80;;;2.85;;
3066;SDS011;1544;48.834;9.194;2023-07-09T15:02:37;2.63;;;2.47;;
3066;SDS011;1544;48.834;9.194;2023-07-09T15:05:17;4.25;;;2.60;;
3066;SDS011;1544;48.834;9.194;2023-07-09T15:07:59;3.08;;;2.72;;
3066;SDS011;1544;48.834;9.194;2023-07-09T15:10:36;3.33;;;3.13;;
3066;SDS011;1544;48.834;9.194;2023-07-09T15:13:16;3.25;;;3.03;;
3066;SDS011;1544;48.834;9.194;2023-07-09T15:15:54;3.58;;;2.95;;
3066;SDS011;1544;48.834;9.194;2023-07-09T15:18:30;3.45;;;3.15;;
3066;SDS011;1544;48.834;9.194;2023-07-09T15:21:09;3.67;;;3.22;;
3066;SDS011;1544;48.834;9.194;2023-07-09T15:23:45;2.75;;;2.55;;
3066;SDS011;1544;48.834;9.194;2023-07-09T15:26:21;4.10;;;2.90;;
3066;SDS011;1544;48.834;9.194;2023-07-09T15:28:58;3.03;;;2.60;;
3066;SDS011;1544;48.834;9.194;2023-07-09T15:31:34;3.85;;;2.45;;
3066;SDS011;1544;48.834;9.194;2023-07-09T15:34:10;2.90;;;2.70;;
3066;SDS011;1544;48.834;9.194;2023-07-09T15:36:50;3.58;;;3.38;;
3066;SDS011;1544;48.834;9.194;2023-07-09T15:39:27;2.92;;;2.75;;
3066;SDS011;1544;48.834;9.194;2023-07-09T15:42:08;2.63;;;2.42;;
3066;SDS011;1544;48.834;9.194;2023-07-09T15:44:48;3.22;;;2.75;;
3066;SDS011;1544;48.834;9.194;2023-07-09T15:47:24;2.55;;;2.45;;
3066;SDS011;1544;48.834;9.194;2023-07-09T15:50:07;2.58;;;2.38;;
3066;SDS011;1544;48.834;9.194;2023-07-09T15:52:53;5.07;;;2.72;;
3066;SDS011;1544;48.834;9.194;2023-07-09T15:55:29;4.57;;;2.60;;
3066;SDS011;1544;48.834;9.194;2023-07-09T15:58:07;2.42;;;2.20;;
3066;SDS011;1544;48.834;9.194;2023-07-09T16:00:59;2.42;;;2.22;;
3066;SDS011;1544;48.834;9.194;2023-07-09T16:03:36;2.70;;;2.50;;
3066;SDS011;1544;48.834;9.194;2023-07-09T16:06:12;2.33;;;2.13;;
3066;SDS011;1544;48.834;9.194;2023-07-09T16:08:48;3.05;;;2.20;;
3066;SDS011;1544;48.834;9.194;2023-07-09T16:11:25;2.95;;;2.75;;
3066;SDS011;1544;48.834;9.194;2023-07-09T16:14:01;2.22;;;2.13;;
3066;SDS011;1544;48.834;9.194;2023-07-09T16:16:37;2.45;;;2.25;;
3066;SDS011;1544;48.834;9.194;2023-07-09T16:19:13;2.85;;;2.65;;
3066;SDS011;1544;48.834;9.194;2023-07-09T16:21:51;2.77;;;2.57;;
3066;SDS011;1544;48.834;9.194;2023-07-09T16:24:37;3.10;;;2.90;;
3066;SDS011;1544;48.834;9.194;2023-07-09T16:27:14;2.83;;;2.63;;
3066;SDS011;1544;48.834;9.194;2023-07-09T16:29:51;2.47;;;2.37;;
3066;SDS011;1544;48.834;9.194;2023-07-09T16:32:27;2.30;;;2.20;;
3066;SDS011;1544;48.834;9.194;2023-07-09T16:35:03;2.70;;;2.50;;
3066;SDS011;1544;48.834;9.194;2023-07-09T16:37:40;3.83;;;2.93;;
3066;SDS011;1544;48.834;9.194;2023-07-09T16:40:18;2.93;;;2.63;;
3066;SDS011;1544;48.834;9.194;2023-07-09T16:43:10;3.33;;;2.60;;
3066;SDS011;1544;48.834;9.194;2023-07-09T16:45:51;2.40;;;2.30;;
3066;SDS011;1544;48.834;9.194;2023-07-09T16:48:27;3.10;;;2.87;;
3066;SDS011;1544;48.834;9.194;2023-07-09T16:51:03;3.17;;;2.97;;
3066;SDS011;1544;48.834;9.194;2023-07-09T16:53:39;3.00;;;2.40;;
3066;SDS011;1544;48.834;9.194;2023-07-09T16:56:15;2.40;;;2.30;;
3066;SDS011;1544;48.834;9.194;2023-07-09T16:58:51;3.17;;;2.97;;